createdAt,value
2023-01-28T00:02:13.115Z,24.50
2023-01-28T00:04:41.761Z,22.10
2023-01-28T00:07:10.260Z,27.70
2023-01-28T00:09:39.728Z,25.80
2023-01-28T00:12:08.223Z,25.10
2023-01-28T00:14:36.634Z,23.70
2023-01-28T00:17:06.399Z,23.80
2023-01-28T00:19:34.951Z,24.00
2023-01-28T00:22:04.621Z,27.70
2023-01-28T00:24:33.180Z,25.30
2023-01-28T00:27:01.721Z,25.50
2023-01-28T00:29:30.196Z,25.90
2023-01-28T00:31:58.694Z,26.10
2023-01-28T00:34:30.993Z,26.60
2023-01-28T00:36:59.446Z,25.80
2023-01-28T00:39:28.017Z,26.10
2023-01-28T00:41:56.538Z,29.40
2023-01-28T00:44:26.454Z,25.80
2023-01-28T00:46:54.833Z,26.70
2023-01-28T00:49:24.096Z,27.80
2023-01-28T00:51:52.532Z,26.40
2023-01-28T00:54:22.030Z,28.00
2023-01-28T00:56:50.687Z,27.60
2023-01-28T00:59:19.426Z,24.00
2023-01-28T01:01:49.172Z,24.70
2023-01-28T01:04:26.952Z,26.40
2023-01-28T01:06:55.619Z,26.90
2023-01-28T01:09:24.225Z,27.20
2023-01-28T01:11:52.685Z,26.80
2023-01-28T01:14:21.158Z,26.20
2023-01-28T01:16:49.843Z,26.60
2023-01-28T01:19:20.901Z,26.30
2023-01-28T01:21:51.054Z,25.80
2023-01-28T01:24:19.757Z,26.40
2023-01-28T01:26:52.661Z,27.50
2023-01-28T01:29:21.160Z,26.80
2023-01-28T01:31:49.780Z,27.00
2023-01-28T01:34:19.097Z,28.40
2023-01-28T01:36:50.241Z,26.40
2023-01-28T01:39:18.794Z,26.60
2023-01-28T01:41:47.814Z,26.90
2023-01-28T01:44:57.355Z,25.80
2023-01-28T01:47:32.324Z,26.80
2023-01-28T01:50:07.491Z,27.40
2023-01-28T01:55:10.478Z,24.70
2023-01-28T01:57:39.161Z,27.40
2023-01-28T02:00:08.643Z,24.60
2023-01-28T02:02:49.001Z,26.00
2023-01-28T02:05:20.472Z,26.40
2023-01-28T02:07:52.086Z,26.80
2023-01-28T02:10:21.394Z,25.90
2023-01-28T02:12:56.399Z,26.40
2023-01-28T02:15:29.871Z,27.30
2023-01-28T02:17:58.619Z,28.80
2023-01-28T02:20:53.093Z,28.10
2023-01-28T02:23:59.142Z,27.70
2023-01-28T02:26:55.296Z,26.00
2023-01-28T02:29:46.885Z,26.60
2023-01-28T02:32:26.102Z,26.10
2023-01-28T02:34:58.860Z,26.80
2023-01-28T02:37:49.392Z,27.10
2023-01-28T02:40:32.501Z,25.70
2023-01-28T02:43:01.040Z,28.40
2023-01-28T02:45:52.403Z,24.40
2023-01-28T02:48:23.814Z,22.40
2023-01-28T02:51:03.730Z,26.60
2023-01-28T02:53:52.500Z,27.00
2023-01-28T02:57:10.030Z,24.90
2023-01-28T02:59:57.878Z,27.90
2023-01-28T03:02:45.342Z,26.00
2023-01-28T03:05:23.067Z,24.00
2023-01-28T03:07:53.132Z,24.50
2023-01-28T03:10:25.778Z,26.80
2023-01-28T03:13:16.560Z,25.20
2023-01-28T03:16:07.762Z,25.80
2023-01-28T03:19:09.136Z,25.40
2023-01-28T03:22:02.144Z,25.30
2023-01-28T03:25:13.648Z,23.80
2023-01-28T03:28:15.523Z,23.20
2023-01-28T03:31:21.568Z,23.70
2023-01-28T03:34:13.543Z,23.00
2023-01-28T03:36:55.604Z,24.60
2023-01-28T03:39:40.509Z,22.80
2023-01-28T03:42:14.361Z,23.80
2023-01-28T03:45:04.419Z,25.10
2023-01-28T03:47:34.162Z,22.00
2023-01-28T03:50:06.765Z,22.30
2023-01-28T03:52:41.956Z,22.10
2023-01-28T03:55:40.065Z,22.20
2023-01-28T03:58:09.915Z,23.80
2023-01-28T04:00:42.144Z,22.30
2023-01-28T04:03:18.962Z,21.80
2023-01-28T04:06:04.607Z,22.40
2023-01-28T04:08:53.639Z,22.50
2023-01-28T04:11:41.756Z,21.40
2023-01-28T04:14:11.255Z,22.30
2023-01-28T04:16:46.704Z,21.90
2023-01-28T04:19:16.142Z,22.30
2023-01-28T04:21:45.961Z,23.50
2023-01-28T04:24:16.512Z,22.70
2023-01-28T04:26:45.163Z,21.10
2023-01-28T04:29:13.993Z,23.00
2023-01-28T04:31:42.613Z,21.90
2023-01-28T04:34:21.398Z,22.30
2023-01-28T04:37:13.099Z,23.50
2023-01-28T04:40:04.540Z,21.50
2023-01-28T04:43:05.456Z,23.30
2023-01-28T04:45:48.983Z,21.50
2023-01-28T04:48:56.153Z,20.20
2023-01-28T04:51:43.321Z,22.40
2023-01-28T04:54:23.493Z,22.90
2023-01-28T04:56:52.080Z,20.20
2023-01-28T04:59:20.692Z,25.50
2023-01-28T05:01:49.896Z,23.70
2023-01-28T05:04:18.626Z,21.40
2023-01-28T05:06:47.602Z,22.30
2023-01-28T05:09:19.026Z,21.80
2023-01-28T05:11:47.605Z,20.20
2023-01-28T05:14:16.785Z,20.60
2023-01-28T05:16:49.997Z,21.60
2023-01-28T05:19:19.847Z,20.20
2023-01-28T05:21:48.667Z,18.70
2023-01-28T05:24:28.289Z,19.00
2023-01-28T05:26:56.994Z,18.60
2023-01-28T05:29:25.725Z,19.30
2023-01-28T05:31:54.188Z,18.20
2023-01-28T05:34:22.862Z,20.60
2023-01-28T05:36:51.926Z,19.90
2023-01-28T05:39:34.557Z,19.00
2023-01-28T05:42:03.234Z,18.90
2023-01-28T05:44:34.223Z,20.00
2023-01-28T05:47:15.777Z,18.00
2023-01-28T05:49:53.030Z,18.60
2023-01-28T05:52:45.278Z,17.30
2023-01-28T05:55:22.689Z,17.40
2023-01-28T05:57:52.064Z,16.50
2023-01-28T06:00:25.383Z,18.80
2023-01-28T06:02:54.477Z,15.10
2023-01-28T06:05:24.795Z,18.10
2023-01-28T06:07:53.931Z,17.70
2023-01-28T06:10:22.465Z,17.20
2023-01-28T06:12:51.029Z,17.90
2023-01-28T06:15:39.305Z,16.70
2023-01-28T06:18:39.361Z,17.30
2023-01-28T06:21:13.786Z,17.20
2023-01-28T06:23:42.365Z,16.40
2023-01-28T06:26:10.926Z,16.30
2023-01-28T06:28:45.266Z,15.10
2023-01-28T06:31:14.038Z,16.10
2023-01-28T06:33:42.480Z,15.80
2023-01-28T06:36:10.915Z,14.70
2023-01-28T06:38:39.467Z,15.80
2023-01-28T06:41:10.375Z,14.10
2023-01-28T06:43:38.798Z,15.90
2023-01-28T06:46:07.411Z,15.70
2023-01-28T06:48:36.163Z,15.60
2023-01-28T06:51:08.163Z,14.80
2023-01-28T06:53:36.712Z,15.60
2023-01-28T06:56:05.841Z,23.70
2023-01-28T06:58:35.634Z,25.50
2023-01-28T07:01:04.231Z,17.10
2023-01-28T07:03:32.752Z,15.10
2023-01-28T07:06:01.249Z,17.10
2023-01-28T07:08:29.754Z,15.80
2023-01-28T07:10:58.335Z,17.20
2023-01-28T07:13:27.037Z,14.80
2023-01-28T07:15:55.575Z,15.10
2023-01-28T07:18:24.278Z,16.00
2023-01-28T07:20:52.997Z,14.50
2023-01-28T07:23:21.639Z,14.10
2023-01-28T07:25:50.209Z,17.90
2023-01-28T07:28:21.568Z,19.20
2023-01-28T07:30:53.805Z,17.30
2023-01-28T07:33:22.805Z,29.90
2023-01-28T07:35:51.596Z,19.30
2023-01-28T07:38:20.177Z,19.50
2023-01-28T07:40:48.992Z,16.40
2023-01-28T07:43:17.631Z,17.50
2023-01-28T07:45:48.687Z,18.90
2023-01-28T07:48:17.415Z,15.80
2023-01-28T07:50:48.664Z,16.40
2023-01-28T07:53:18.630Z,17.00
2023-01-28T07:55:47.277Z,15.10
2023-01-28T07:58:16.074Z,16.70
2023-01-28T08:00:44.818Z,17.30
2023-01-28T08:03:18.325Z,13.80
2023-01-28T08:05:49.989Z,15.60
2023-01-28T08:08:21.917Z,13.30
2023-01-28T08:10:57.677Z,14.10
2023-01-28T08:13:41.713Z,14.80
2023-01-28T08:16:18.041Z,12.40
2023-01-28T08:18:49.181Z,12.50
2023-01-28T08:24:00.456Z,13.10
2023-01-28T08:26:29.030Z,13.30
2023-01-28T08:28:57.512Z,12.40
2023-01-28T08:31:26.176Z,13.30
2023-01-28T08:33:54.670Z,13.80
2023-01-28T08:36:23.731Z,13.20
2023-01-28T08:38:55.447Z,12.80
2023-01-28T08:41:24.333Z,12.60
2023-01-28T08:43:53.034Z,14.90
2023-01-28T08:46:21.648Z,12.80
2023-01-28T08:48:50.947Z,13.80
2023-01-28T08:51:19.531Z,13.60
2023-01-28T08:53:48.033Z,13.30
2023-01-28T08:56:16.681Z,12.70
2023-01-28T08:58:45.259Z,11.40
2023-01-28T09:01:13.707Z,12.20
2023-01-28T09:03:42.179Z,12.50
2023-01-28T09:06:10.742Z,11.70
2023-01-28T09:08:40.544Z,11.50
2023-01-28T09:11:09.106Z,13.80
2023-01-28T09:13:37.752Z,12.40
2023-01-28T09:16:06.680Z,12.10
2023-01-28T09:18:35.636Z,11.50
2023-01-28T09:21:08.371Z,11.50
2023-01-28T09:23:38.311Z,13.40
2023-01-28T09:26:07.197Z,13.10
2023-01-28T09:28:36.034Z,13.10
2023-01-28T09:31:10.202Z,12.90
2023-01-28T09:33:40.538Z,12.60
2023-01-28T09:36:11.438Z,11.20
2023-01-28T09:38:40.041Z,12.60
2023-01-28T09:41:29.797Z,12.50
2023-01-28T09:44:26.806Z,11.10
2023-01-28T09:47:02.616Z,12.00
2023-01-28T09:49:49.965Z,12.70
2023-01-28T09:52:22.061Z,13.00
2023-01-28T09:54:56.338Z,12.90
2023-01-28T09:57:52.030Z,11.60
2023-01-28T10:00:45.757Z,11.10
2023-01-28T10:03:29.565Z,10.80
2023-01-28T10:06:07.337Z,11.90
2023-01-28T10:09:01.898Z,10.50
2023-01-28T10:11:47.600Z,10.40
2023-01-28T10:14:36.266Z,11.80
2023-01-28T10:17:14.263Z,10.90
2023-01-28T10:20:30.990Z,12.70
2023-01-28T10:25:31.171Z,10.80
2023-01-28T10:28:01.594Z,12.20
2023-01-28T10:30:37.139Z,13.00
2023-01-28T10:33:26.837Z,14.10
2023-01-28T10:35:56.670Z,13.70
2023-01-28T10:38:27.309Z,14.20
2023-01-28T10:41:01.940Z,13.70
2023-01-28T10:43:34.164Z,12.20
2023-01-28T10:46:28.939Z,12.00
2023-01-28T10:49:13.268Z,11.80
2023-01-28T10:51:43.634Z,14.00
2023-01-28T10:54:28.952Z,14.10
2023-01-28T10:57:07.696Z,12.60
2023-01-28T10:59:41.861Z,13.10
2023-01-28T11:02:32.824Z,12.40
2023-01-28T11:05:16.995Z,13.10
2023-01-28T11:07:45.643Z,13.20
2023-01-28T11:10:34.341Z,12.60
2023-01-28T11:13:05.903Z,12.10
2023-01-28T11:15:34.613Z,10.80
2023-01-28T11:21:01.230Z,13.00
2023-01-28T11:23:36.021Z,12.50
2023-01-28T11:26:15.267Z,11.50
2023-01-28T11:28:43.955Z,12.00
2023-01-28T11:31:15.630Z,14.10
2023-01-28T11:33:53.298Z,14.80
2023-01-28T11:36:24.783Z,14.70
2023-01-28T11:38:56.842Z,14.00
2023-01-28T11:41:34.784Z,14.90
2023-01-28T11:44:25.776Z,13.80
2023-01-28T11:47:06.619Z,15.30
2023-01-28T11:49:38.172Z,14.70
2023-01-28T11:52:19.554Z,15.90
2023-01-28T11:54:57.124Z,13.80
2023-01-28T11:58:03.005Z,15.70
2023-01-28T12:00:37.274Z,15.00
2023-01-28T12:03:05.834Z,16.00
2023-01-28T12:06:03.665Z,15.00
2023-01-28T12:08:45.614Z,15.60
2023-01-28T12:11:52.616Z,15.50
2023-01-28T12:14:44.285Z,19.60
2023-01-28T12:17:46.922Z,16.10
2023-01-28T12:20:39.134Z,14.60
2023-01-28T12:23:22.607Z,15.20
2023-01-28T12:26:09.029Z,15.40
2023-01-28T12:28:55.095Z,15.70
2023-01-28T12:31:35.775Z,16.10
2023-01-28T12:34:36.356Z,20.80
2023-01-28T12:37:38.539Z,18.10
2023-01-28T12:40:26.636Z,25.40
2023-01-28T12:43:00.349Z,19.20
2023-01-28T12:45:40.781Z,14.60
2023-01-28T12:48:20.175Z,16.20
2023-01-28T12:50:55.854Z,17.00
2023-01-28T12:53:33.952Z,14.30
2023-01-28T12:56:15.746Z,14.20
2023-01-28T12:59:06.169Z,14.30
2023-01-28T13:01:43.241Z,22.70
2023-01-28T13:04:49.559Z,18.50
2023-01-28T13:07:34.639Z,22.10
2023-01-28T13:10:27.796Z,16.60
2023-01-28T13:12:58.013Z,15.70
2023-01-28T13:15:26.406Z,14.90
2023-01-28T13:18:03.475Z,13.60
2023-01-28T13:20:54.754Z,14.60
2023-01-28T13:23:42.094Z,16.40
2023-01-28T13:26:18.125Z,14.60
2023-01-28T13:28:49.187Z,14.40
2023-01-28T13:31:20.080Z,16.40
2023-01-28T13:33:54.297Z,15.50
2023-01-28T13:36:37.441Z,15.00
2023-01-28T13:39:12.098Z,17.70
2023-01-28T13:41:45.672Z,18.70
2023-01-28T13:44:21.627Z,19.70
2023-01-28T13:46:50.200Z,20.30
2023-01-28T13:49:28.809Z,19.20
2023-01-28T13:52:05.211Z,16.80
2023-01-28T13:54:36.852Z,16.40
2023-01-28T13:57:15.022Z,16.60
2023-01-28T14:00:17.674Z,15.20
2023-01-28T14:03:06.630Z,15.30
2023-01-28T14:05:47.422Z,16.40
2023-01-28T14:08:47.161Z,21.30
2023-01-28T14:11:34.404Z,20.00
2023-01-28T14:14:27.297Z,16.80
2023-01-28T14:17:11.886Z,18.20
2023-01-28T14:19:41.033Z,18.90
2023-01-28T14:22:19.997Z,18.80
2023-01-28T14:24:48.640Z,19.10
2023-01-28T14:27:32.656Z,16.40
2023-01-28T14:30:30.711Z,19.90
2023-01-28T14:32:59.104Z,21.40
2023-01-28T14:35:31.579Z,18.60
2023-01-28T14:38:01.144Z,23.40
2023-01-28T14:40:30.447Z,40.20
2023-01-28T14:42:59.190Z,31.90
2023-01-28T14:45:36.467Z,24.20
2023-01-28T14:48:39.273Z,22.80
2023-01-28T14:51:22.962Z,24.10
2023-01-28T14:54:19.188Z,23.30
2023-01-28T14:56:58.718Z,24.00
2023-01-28T14:59:34.885Z,26.50
2023-01-28T15:02:12.943Z,24.90
2023-01-28T15:04:46.572Z,26.10
2023-01-28T15:07:28.532Z,24.60
2023-01-28T15:10:08.589Z,25.50
2023-01-28T15:12:39.754Z,28.60
2023-01-28T15:15:19.131Z,27.40
2023-01-28T15:17:49.836Z,25.50
2023-01-28T15:20:25.139Z,25.80
2023-01-28T15:22:54.913Z,24.70
2023-01-28T15:25:31.092Z,24.40
2023-01-28T15:28:04.568Z,24.20
2023-01-28T15:30:33.083Z,29.10
2023-01-28T15:33:13.005Z,26.30
2023-01-28T15:35:55.810Z,29.60
2023-01-28T15:38:27.771Z,36.80
2023-01-28T15:40:59.316Z,31.80
2023-01-28T15:43:34.726Z,34.30
2023-01-28T15:46:03.789Z,35.70
2023-01-28T15:48:34.973Z,38.10
2023-01-28T15:51:06.873Z,33.30
2023-01-28T15:53:44.852Z,34.80
2023-01-28T15:56:15.526Z,31.90
2023-01-28T15:58:44.168Z,32.70
2023-01-28T16:01:16.331Z,33.80
2023-01-28T16:03:46.638Z,37.80
2023-01-28T16:06:20.157Z,42.60
2023-01-28T16:09:01.220Z,42.80
2023-01-28T16:11:35.125Z,41.80
2023-01-28T16:14:04.530Z,45.70
2023-01-28T16:16:38.472Z,44.40
2023-01-28T16:19:07.635Z,41.10
2023-01-28T16:21:45.683Z,38.40
2023-01-28T16:24:30.539Z,38.00
2023-01-28T16:27:09.443Z,37.70
2023-01-28T16:29:37.828Z,34.00
2023-01-28T16:32:29.722Z,34.10
2023-01-28T16:34:59.374Z,30.50
2023-01-28T16:37:28.143Z,30.70
2023-01-28T16:40:00.346Z,30.20
2023-01-28T16:42:32.585Z,42.40
2023-01-28T16:45:01.013Z,40.80
2023-01-28T16:47:29.559Z,40.00
2023-01-28T16:50:01.471Z,36.80
2023-01-28T16:52:30.318Z,29.40
2023-01-28T16:54:59.143Z,26.60
2023-01-28T16:57:36.458Z,25.80
2023-01-28T17:00:06.761Z,24.90
2023-01-28T17:02:38.144Z,21.60
2023-01-28T17:05:16.003Z,23.10
2023-01-28T17:07:46.334Z,24.20
2023-01-28T17:10:15.880Z,25.70
2023-01-28T17:12:44.812Z,31.80
2023-01-28T17:15:13.173Z,32.00
2023-01-28T17:17:41.860Z,33.00
2023-01-28T17:20:17.384Z,32.80
2023-01-28T17:22:49.897Z,29.60
2023-01-28T17:25:18.644Z,29.20
2023-01-28T17:27:49.739Z,29.30
2023-01-28T17:30:29.593Z,36.50
2023-01-28T17:32:58.885Z,32.20
2023-01-28T17:35:27.322Z,29.90
2023-01-28T17:37:55.720Z,29.40
2023-01-28T17:40:24.325Z,31.50
2023-01-28T17:42:53.104Z,32.50
2023-01-28T17:45:22.576Z,35.00
2023-01-28T17:47:51.132Z,31.10
2023-01-28T17:50:19.459Z,32.30
2023-01-28T17:52:47.834Z,33.40
2023-01-28T17:55:16.482Z,34.00
2023-01-28T17:57:45.279Z,32.90
2023-01-28T18:00:14.430Z,30.60
2023-01-28T18:02:42.880Z,32.90
2023-01-28T18:05:12.864Z,31.80
2023-01-28T18:07:41.339Z,34.40
2023-01-28T18:10:10.432Z,37.40
2023-01-28T18:12:38.785Z,40.80
2023-01-28T18:15:10.284Z,39.30
2023-01-28T18:17:39.631Z,42.20
2023-01-28T18:20:08.416Z,40.40
2023-01-28T18:22:36.778Z,40.90
2023-01-28T18:25:05.867Z,38.70
2023-01-28T18:27:34.318Z,36.90
2023-01-28T18:30:02.739Z,36.50
2023-01-28T18:32:31.154Z,35.40
2023-01-28T18:34:59.502Z,35.20
2023-01-28T18:37:28.396Z,42.10
2023-01-28T18:39:56.774Z,48.00
2023-01-28T18:42:25.155Z,51.30
2023-01-28T18:44:54.152Z,58.50
2023-01-28T18:47:22.491Z,46.80
2023-01-28T18:49:51.096Z,43.10
2023-01-28T18:52:19.479Z,46.50
2023-01-28T18:54:47.941Z,47.00
2023-01-28T18:57:16.254Z,44.10
2023-01-28T18:59:44.888Z,41.60
2023-01-28T19:02:14.727Z,43.40
2023-01-28T19:04:44.214Z,40.20
2023-01-28T19:09:57.024Z,42.40
2023-01-28T19:12:25.919Z,44.10
2023-01-28T19:14:57.317Z,44.90
2023-01-28T19:17:27.140Z,45.40
2023-01-28T19:19:55.615Z,42.30
2023-01-28T19:22:24.241Z,45.00
2023-01-28T19:24:52.805Z,45.70
2023-01-28T19:27:21.681Z,47.70
2023-01-28T19:29:50.272Z,42.90
2023-01-28T19:32:19.078Z,44.60
2023-01-28T19:34:49.005Z,46.70
2023-01-28T19:37:17.660Z,48.60
2023-01-28T19:39:48.593Z,49.00
2023-01-28T19:42:17.066Z,42.60
2023-01-28T19:44:45.708Z,43.90
2023-01-28T19:47:14.561Z,44.30
2023-01-28T19:49:44.299Z,47.90
2023-01-28T19:52:12.805Z,46.20
2023-01-28T19:54:41.116Z,48.90
2023-01-28T19:57:09.364Z,49.20
2023-01-28T19:59:37.980Z,47.80
2023-01-28T20:02:06.340Z,48.20
2023-01-28T20:04:34.849Z,46.20
2023-01-28T20:07:03.449Z,46.30
2023-01-28T20:09:32.425Z,45.60
2023-01-28T20:12:00.820Z,50.00
2023-01-28T20:14:29.880Z,46.00
2023-01-28T20:16:58.743Z,47.10
2023-01-28T20:19:27.434Z,49.40
2023-01-28T20:21:55.900Z,48.00
2023-01-28T20:24:24.343Z,45.90
2023-01-28T20:26:54.236Z,51.20
2023-01-28T20:29:25.910Z,48.40
2023-01-28T20:32:14.874Z,45.00
2023-01-28T20:34:44.219Z,41.20
2023-01-28T20:37:12.959Z,46.50
2023-01-28T20:39:42.264Z,46.60
2023-01-28T20:42:13.347Z,46.60
2023-01-28T20:44:42.033Z,43.60
2023-01-28T20:47:10.512Z,45.40
2023-01-28T20:49:39.326Z,45.40
2023-01-28T20:52:07.628Z,50.20
2023-01-28T20:54:36.009Z,49.00
2023-01-28T20:57:08.008Z,51.50
2023-01-28T20:59:37.070Z,48.20
2023-01-28T21:02:05.531Z,51.00
2023-01-28T21:04:34.052Z,54.80
2023-01-28T21:07:02.540Z,53.30
2023-01-28T21:09:30.846Z,51.40
2023-01-28T21:11:59.682Z,52.40
2023-01-28T21:14:28.149Z,49.10
2023-01-28T21:16:56.707Z,54.10
2023-01-28T21:19:25.118Z,52.20
2023-01-28T21:21:53.460Z,52.20
2023-01-28T21:24:21.797Z,54.30
2023-01-28T21:26:50.308Z,52.80
2023-01-28T21:29:19.714Z,51.10
2023-01-28T21:31:48.258Z,50.90
2023-01-28T21:34:18.057Z,48.70
2023-01-28T21:36:46.498Z,47.40
2023-01-28T21:39:14.989Z,50.90
2023-01-28T21:41:44.039Z,50.90
2023-01-28T21:44:12.409Z,49.60
2023-01-28T21:46:40.854Z,48.10
2023-01-28T21:49:10.693Z,53.60
2023-01-28T21:51:47.400Z,46.00
2023-01-28T21:54:18.880Z,56.10
2023-01-28T21:56:49.229Z,56.60
2023-01-28T21:59:28.687Z,59.80
2023-01-28T22:02:06.108Z,46.50
2023-01-28T22:04:36.826Z,48.60
2023-01-28T22:07:07.826Z,53.60
2023-01-28T22:09:36.468Z,56.30
2023-01-28T22:12:09.675Z,62.20
2023-01-28T22:14:39.518Z,58.10
2023-01-28T22:17:11.514Z,53.50
2023-01-28T22:19:40.094Z,44.60
2023-01-28T22:22:08.366Z,40.10
2023-01-28T22:24:36.786Z,37.40
2023-01-28T22:27:05.157Z,34.30
2023-01-28T22:29:33.531Z,36.40
2023-01-28T22:32:04.725Z,37.30
2023-01-28T22:34:33.167Z,36.90
2023-01-28T22:37:01.682Z,37.50
2023-01-28T22:39:30.687Z,35.10
2023-01-28T22:41:59.185Z,35.10
2023-01-28T22:44:27.625Z,33.80
2023-01-28T22:46:56.027Z,32.50
2023-01-28T22:49:27.075Z,35.40
2023-01-28T22:51:55.439Z,30.30
2023-01-28T22:54:23.776Z,28.80
2023-01-28T22:56:52.233Z,29.80
2023-01-28T22:59:21.696Z,30.10
2023-01-28T23:01:50.072Z,29.80
2023-01-28T23:04:18.404Z,30.20
2023-01-28T23:06:48.271Z,29.00
2023-01-28T23:09:16.656Z,25.60
2023-01-28T23:11:44.994Z,24.70
2023-01-28T23:14:32.067Z,26.80
2023-01-28T23:17:19.598Z,26.60
2023-01-28T23:20:06.792Z,24.50
2023-01-28T23:22:54.068Z,26.10
2023-01-28T23:25:23.916Z,22.70
2023-01-28T23:27:52.386Z,25.00
2023-01-28T23:30:25.341Z,26.00
2023-01-28T23:32:57.711Z,26.90
2023-01-28T23:35:26.262Z,26.00
2023-01-28T23:37:55.709Z,23.30
2023-01-28T23:40:24.777Z,23.70
2023-01-28T23:42:55.031Z,26.20
2023-01-28T23:45:23.409Z,25.60
2023-01-28T23:47:52.589Z,23.60
2023-01-28T23:50:21.089Z,25.20
2023-01-28T23:52:49.507Z,26.60
2023-01-28T23:55:17.899Z,22.60
2023-01-28T23:57:46.215Z,23.50
